Weather at Dunnville (Haldimand War Memorial Hospital) Heliport

Public forecast

Using degrees Celsius for public forecast. Weather courtesy of forecast.io.

Closest aviation weather report (METAR) to Dunnville (Haldimand War Memorial Hospital) Heliport

Closest report is John C. Munro Hamilton International Airport, 20.6 nm (38.2 km) NW.

2024/05/27 22:00 (retrieved 35 minutes ago)

CYHM 272200Z CCA 23026G31KT 15SM FEW030 BKN038 BKN250 20/14 A2952 RMK CU1SC4CI1 CB TOPS DIST SE SLP998 DENSITY ALT 2000FT

Closest aviation forecast (TAF) to Dunnville (Haldimand War Memorial Hospital) Heliport

Closest forecast is John C. Munro Hamilton International Airport, 20.6 nm (38.2 km) NW.

2024/05/27 18:42 (retrieved 4 hours ago)

TAF TAF CYHM 271740Z 2718/2818 22015G25KT P6SM BKN025 TEMPO 2718/2722 5SM -SHRA BR BKN015 PROB30 2718/2722 VRB20G30KT 2SM +TSRA BR BKN008 OVC020CB FM272200 24020G30KT P6SM BKN025 TEMPO 2722/2803 BKN015 BECMG 2722/2724 24015G25KT FM280300 24012G22KT 6SM -DZ BR BKN008 OVC015 BECMG 2806/2808 28010KT FM281200 28010G20KT P6SM BKN015 OVC060 RMK NXT FCST BY 280000Z